Time;durP1;ratioP1;P1;durP2;ratioP2;P2;SDS_P1;SDS_P2;PMS_P1;PMS_P2;Temp;Humidity;BMP_temperature;BMP_pressure;BME280_temperature;BME280_humidity;BME280_pressure;Samples;Min_cycle;Max_cycle;Signal;HPM_P1;HPM_P2
2023/08/29 00:02:15;;;;;;;5.53;3.17;;;;;;;;;;5039155;28;20456;-77
2023/08/29 00:04:41;;;;;;;6.22;2.90;;;;;;;;;;5040530;28;20044;-77
2023/08/29 00:07:07;;;;;;;5.65;3.42;;;;;;;;;;5054454;28;20064;-77
2023/08/29 00:09:33;;;;;;;7.50;3.45;;;;;;;;;;5065411;28;20461;-77
2023/08/29 00:12:00;;;;;;;5.28;3.00;;;;;;;;;;5039986;28;20041;-76
2023/08/29 00:14:26;;;;;;;5.57;3.00;;;;;;;;;;5053137;28;20071;-77
2023/08/29 00:16:52;;;;;;;7.07;3.60;;;;;;;;;;5052176;28;20410;-79
2023/08/29 00:19:18;;;;;;;5.90;3.10;;;;;;;;;;5055376;28;20091;-77
2023/08/29 00:21:45;;;;;;;6.85;3.40;;;;;;;;;;5054063;28;20056;-77
2023/08/29 00:24:11;;;;;;;6.40;3.10;;;;;;;;;;5053644;28;20120;-77
2023/08/29 00:26:37;;;;;;;8.45;3.40;;;;;;;;;;5057276;28;20410;-77
2023/08/29 00:29:03;;;;;;;5.22;3.10;;;;;;;;;;5036022;28;20056;-77
2023/08/29 00:31:29;;;;;;;5.53;2.92;;;;;;;;;;5054581;28;20045;-76
2023/08/29 00:33:55;;;;;;;6.95;2.88;;;;;;;;;;5053365;28;20095;-77
2023/08/29 00:36:21;;;;;;;7.28;3.20;;;;;;;;;;5054787;28;20045;-77
2023/08/29 00:38:47;;;;;;;5.70;2.90;;;;;;;;;;5063567;28;20045;-77
2023/08/29 00:41:13;;;;;;;5.97;3.17;;;;;;;;;;5044831;28;20494;-77
2023/08/29 00:43:39;;;;;;;6.72;2.95;;;;;;;;;;5064123;28;20044;-77
2023/08/29 00:46:06;;;;;;;5.82;2.63;;;;;;;;;;5067098;28;20045;-77
2023/08/29 00:48:33;;;;;;;5.50;2.97;;;;;;;;;;5051544;28;20450;-77
2023/08/29 00:50:59;;;;;;;6.13;3.03;;;;;;;;;;5060754;28;20586;-77
2023/08/29 00:53:26;;;;;;;6.55;2.90;;;;;;;;;;5070303;28;20044;-77
2023/08/29 00:55:52;;;;;;;5.63;3.00;;;;;;;;;;5056601;28;20518;-77
2023/08/29 00:58:19;;;;;;;6.15;3.20;;;;;;;;;;5053367;28;20053;-77
2023/08/29 01:00:46;;;;;;;6.88;3.03;;;;;;;;;;5057963;28;20053;-77
2023/08/29 01:03:12;;;;;;;4.80;3.00;;;;;;;;;;5052090;28;20041;-77
2023/08/29 01:05:38;;;;;;;5.80;2.67;;;;;;;;;;5064295;28;20083;-77
2023/08/29 01:08:12;;;;;;;6.60;3.42;;;;;;;;;;5139206;27;20404;-76
2023/08/29 01:11:07;;;;;;;8.18;3.58;;;;;;;;;;5128475;28;20138;-77
2023/08/29 01:13:36;;;;;;;6.35;3.50;;;;;;;;;;5035926;28;20439;-76
2023/08/29 01:16:05;;;;;;;6.72;3.63;;;;;;;;;;5049708;28;20091;-77
2023/08/29 01:18:32;;;;;;;6.55;3.35;;;;;;;;;;5038999;28;20058;-76
2023/08/29 01:21:03;;;;;;;6.18;3.30;;;;;;;;;;5038733;28;20037;-76
2023/08/29 01:23:29;;;;;;;7.00;3.53;;;;;;;;;;5027563;28;20054;-77
2023/08/29 01:26:13;;;;;;;6.22;3.00;;;;;;;;;;5039123;28;20045;-76
2023/08/29 01:28:40;;;;;;;6.15;3.30;;;;;;;;;;5045614;28;20084;-77
2023/08/29 01:31:07;;;;;;;7.15;3.40;;;;;;;;;;5047506;28;20084;-76
2023/08/29 01:33:33;;;;;;;6.50;3.05;;;;;;;;;;5046895;28;20045;-76
2023/08/29 01:35:59;;;;;;;5.88;3.22;;;;;;;;;;5046829;28;20045;-76
2023/08/29 01:38:25;;;;;;;6.35;3.17;;;;;;;;;;5041343;28;20037;-77
2023/08/29 01:40:51;;;;;;;5.78;2.70;;;;;;;;;;5046309;28;20056;-77
2023/08/29 01:43:17;;;;;;;6.78;2.90;;;;;;;;;;5046119;28;20049;-76
2023/08/29 01:45:44;;;;;;;6.18;3.22;;;;;;;;;;5031241;28;20061;-76
2023/08/29 01:48:13;;;;;;;7.25;3.10;;;;;;;;;;5046140;28;20041;-76
2023/08/29 01:50:39;;;;;;;6.25;3.25;;;;;;;;;;5106060;28;20081;-77
2023/08/29 01:53:06;;;;;;;6.35;2.88;;;;;;;;;;5130286;28;20424;-76
2023/08/29 01:55:32;;;;;;;6.78;3.42;;;;;;;;;;5129845;28;20520;-76
2023/08/29 01:57:59;;;;;;;5.95;3.38;;;;;;;;;;5129703;28;20040;-76
2023/08/29 02:00:25;;;;;;;6.43;3.10;;;;;;;;;;5128811;28;20523;-77
2023/08/29 02:02:51;;;;;;;7.07;2.95;;;;;;;;;;5129466;28;20046;-77
2023/08/29 02:05:17;;;;;;;5.38;2.92;;;;;;;;;;5130241;28;20035;-77
2023/08/29 02:07:43;;;;;;;5.47;3.70;;;;;;;;;;5129066;28;20047;-77
2023/08/29 02:10:10;;;;;;;6.35;2.97;;;;;;;;;;5130147;28;20047;-76
2023/08/29 02:12:36;;;;;;;7.40;3.17;;;;;;;;;;5129543;28;20047;-77
2023/08/29 02:15:03;;;;;;;5.97;3.00;;;;;;;;;;5116987;28;20044;-76
2023/08/29 02:17:29;;;;;;;5.32;2.67;;;;;;;;;;5124526;28;20043;-76
2023/08/29 02:19:55;;;;;;;7.05;2.67;;;;;;;;;;5099466;28;20039;-77
2023/08/29 02:22:21;;;;;;;6.82;2.90;;;;;;;;;;5095642;28;20052;-77
2023/08/29 02:24:47;;;;;;;5.35;2.85;;;;;;;;;;5102787;28;20133;-76
2023/08/29 02:27:14;;;;;;;6.78;3.30;;;;;;;;;;5112326;28;20489;-76
2023/08/29 02:29:40;;;;;;;6.20;3.50;;;;;;;;;;5115432;28;20047;-76
2023/08/29 02:32:06;;;;;;;7.70;3.50;;;;;;;;;;5115105;28;20036;-76
2023/08/29 02:34:32;;;;;;;5.60;2.97;;;;;;;;;;5110510;28;20504;-77
2023/08/29 02:36:58;;;;;;;6.80;3.20;;;;;;;;;;5101242;28;20036;-76
2023/08/29 02:39:24;;;;;;;6.03;3.17;;;;;;;;;;5108723;28;20517;-77
2023/08/29 02:41:50;;;;;;;6.53;3.08;;;;;;;;;;5114636;28;20055;-77
2023/08/29 02:44:17;;;;;;;5.50;2.95;;;;;;;;;;5110672;28;20046;-77
2023/08/29 02:46:43;;;;;;;6.78;3.05;;;;;;;;;;5110000;28;20379;-76
2023/08/29 02:49:09;;;;;;;6.13;2.75;;;;;;;;;;5113334;28;20394;-76
2023/08/29 02:51:35;;;;;;;7.43;3.15;;;;;;;;;;5114680;28;20031;-76
2023/08/29 02:54:01;;;;;;;6.88;3.50;;;;;;;;;;5115415;28;20100;-76
2023/08/29 02:56:27;;;;;;;6.68;3.00;;;;;;;;;;5079324;28;20058;-76
2023/08/29 02:58:54;;;;;;;6.28;3.00;;;;;;;;;;5105077;28;20047;-77
2023/08/29 03:01:20;;;;;;;6.32;3.13;;;;;;;;;;5094761;28;20499;-76
2023/08/29 03:03:47;;;;;;;4.15;2.45;;;;;;;;;;5109161;28;20043;-76
2023/08/29 03:06:14;;;;;;;6.18;2.72;;;;;;;;;;5113835;28;20059;-76
2023/08/29 03:08:40;;;;;;;5.88;2.80;;;;;;;;;;5113886;28;20040;-76
2023/08/29 03:11:07;;;;;;;5.35;2.67;;;;;;;;;;5113287;28;20050;-76
2023/08/29 03:13:33;;;;;;;4.95;2.38;;;;;;;;;;5115385;28;20047;-76
2023/08/29 03:15:59;;;;;;;4.53;2.10;;;;;;;;;;5113148;28;20074;-76
2023/08/29 03:18:26;;;;;;;5.00;2.22;;;;;;;;;;5109713;28;20405;-76
2023/08/29 03:20:53;;;;;;;5.60;2.22;;;;;;;;;;5105113;28;20075;-76
2023/08/29 03:23:19;;;;;;;4.82;1.90;;;;;;;;;;5111532;28;20046;-76
2023/08/29 03:25:45;;;;;;;3.78;1.90;;;;;;;;;;5111198;28;20040;-76
2023/08/29 03:28:11;;;;;;;3.65;1.60;;;;;;;;;;5111629;28;20504;-77
2023/08/29 03:30:37;;;;;;;3.42;1.70;;;;;;;;;;5096075;28;20048;-76
2023/08/29 03:33:03;;;;;;;3.97;1.52;;;;;;;;;;5094927;28;20044;-76
2023/08/29 03:35:29;;;;;;;3.90;2.05;;;;;;;;;;5104989;28;20055;-76
2023/08/29 03:37:56;;;;;;;6.75;2.50;;;;;;;;;;5095822;28;20039;-77
2023/08/29 03:40:22;;;;;;;5.85;2.95;;;;;;;;;;5114524;28;20072;-76
2023/08/29 03:42:48;;;;;;;4.30;2.20;;;;;;;;;;5113738;28;20040;-76
2023/08/29 03:45:14;;;;;;;4.75;2.15;;;;;;;;;;5114416;28;20044;-77
2023/08/29 03:47:40;;;;;;;5.40;2.25;;;;;;;;;;5114211;28;20046;-77
2023/08/29 03:50:07;;;;;;;7.55;2.15;;;;;;;;;;5113843;28;20048;-76
2023/08/29 03:52:33;;;;;;;4.45;2.20;;;;;;;;;;5113773;28;20390;-77
2023/08/29 03:54:59;;;;;;;4.53;2.10;;;;;;;;;;5112382;28;20052;-76
2023/08/29 03:57:28;;;;;;;4.43;1.90;;;;;;;;;;5114011;28;20061;-77
2023/08/29 03:59:55;;;;;;;4.88;2.20;;;;;;;;;;5100783;28;20027;-77
2023/08/29 04:02:21;;;;;;;6.07;2.40;;;;;;;;;;5113621;28;20396;-77
2023/08/29 04:04:50;;;;;;;6.25;2.40;;;;;;;;;;5113163;28;20516;-76
2023/08/29 04:07:16;;;;;;;4.90;2.30;;;;;;;;;;5114154;28;20059;-76
2023/08/29 04:09:43;;;;;;;4.15;2.20;;;;;;;;;;5111308;28;20391;-76
2023/08/29 04:12:10;;;;;;;4.70;2.08;;;;;;;;;;5094871;28;20040;-76
2023/08/29 04:14:36;;;;;;;4.18;2.05;;;;;;;;;;5101403;28;20048;-76
2023/08/29 04:17:03;;;;;;;3.05;1.70;;;;;;;;;;5087076;28;20126;-76
2023/08/29 04:19:29;;;;;;;3.40;1.30;;;;;;;;;;5111733;28;20386;-76
2023/08/29 04:21:56;;;;;;;2.60;1.27;;;;;;;;;;5110300;28;20493;-76
2023/08/29 04:24:23;;;;;;;3.90;1.30;;;;;;;;;;5112338;28;20393;-77
2023/08/29 04:26:49;;;;;;;2.90;1.23;;;;;;;;;;5095886;28;20039;-77
2023/08/29 04:29:15;;;;;;;2.47;1.17;;;;;;;;;;5099329;28;20084;-76
2023/08/29 04:31:42;;;;;;;3.40;1.27;;;;;;;;;;5106147;28;20453;-76
2023/08/29 04:34:08;;;;;;;3.60;1.50;;;;;;;;;;5093827;28;20048;-76
2023/08/29 04:36:34;;;;;;;4.07;1.83;;;;;;;;;;5106507;28;20489;-76
2023/08/29 04:39:00;;;;;;;5.10;2.30;;;;;;;;;;5109539;28;20047;-76
2023/08/29 04:41:26;;;;;;;4.15;1.70;;;;;;;;;;5104635;28;20126;-76
2023/08/29 04:43:52;;;;;;;3.40;1.83;;;;;;;;;;5103043;28;20490;-77
2023/08/29 04:46:18;;;;;;;4.50;2.20;;;;;;;;;;5093570;28;20051;-76
2023/08/29 04:48:44;;;;;;;5.72;2.67;;;;;;;;;;5111462;28;20147;-76
2023/08/29 04:51:10;;;;;;;4.35;2.10;;;;;;;;;;5110317;28;20054;-76
2023/08/29 04:53:37;;;;;;;5.65;2.25;;;;;;;;;;5109690;28;20047;-76
2023/08/29 04:56:04;;;;;;;4.45;1.90;;;;;;;;;;5081339;28;20498;-77
2023/08/29 04:58:30;;;;;;;4.38;2.10;;;;;;;;;;5100018;28;20036;-76
2023/08/29 05:00:57;;;;;;;5.75;1.90;;;;;;;;;;5100774;28;20099;-76
2023/08/29 05:03:23;;;;;;;4.53;1.80;;;;;;;;;;5106788;28;20040;-76
2023/08/29 05:05:51;;;;;;;4.10;2.00;;;;;;;;;;5106034;28;20035;-76
2023/08/29 05:08:18;;;;;;;3.95;1.70;;;;;;;;;;5110480;28;20051;-76
2023/08/29 05:10:44;;;;;;;3.70;1.67;;;;;;;;;;5110838;28;20047;-77
2023/08/29 05:13:10;;;;;;;4.57;2.03;;;;;;;;;;5111534;28;20039;-76
2023/08/29 05:15:36;;;;;;;4.90;2.10;;;;;;;;;;5101713;28;20036;-76
2023/08/29 05:18:02;;;;;;;3.30;1.50;;;;;;;;;;5107194;28;20071;-77
2023/08/29 05:20:28;;;;;;;5.93;1.77;;;;;;;;;;5111124;28;20046;-76
2023/08/29 05:22:55;;;;;;;4.03;1.38;;;;;;;;;;5109958;28;20485;-76
2023/08/29 05:25:21;;;;;;;3.85;1.30;;;;;;;;;;5109361;28;20092;-76
2023/08/29 05:27:48;;;;;;;2.90;0.93;;;;;;;;;;5101833;28;20093;-76
2023/08/29 05:30:14;;;;;;;2.67;1.10;;;;;;;;;;5073973;28;20052;-77
2023/08/29 05:32:40;;;;;;;1.52;0.70;;;;;;;;;;5105014;28;20092;-76
2023/08/29 05:35:09;;;;;;;1.92;0.80;;;;;;;;;;5097924;28;20040;-77
2023/08/29 05:37:35;;;;;;;2.60;0.70;;;;;;;;;;5111410;28;20507;-77
2023/08/29 05:40:03;;;;;;;3.53;0.90;;;;;;;;;;5111839;28;20051;-76
2023/08/29 05:42:29;;;;;;;1.63;0.70;;;;;;;;;;5111374;28;20075;-76
2023/08/29 05:44:55;;;;;;;2.10;1.08;;;;;;;;;;5111496;28;20043;-76
2023/08/29 05:47:22;;;;;;;2.55;1.00;;;;;;;;;;5110405;28;20039;-77
2023/08/29 05:49:48;;;;;;;3.13;1.05;;;;;;;;;;5094653;28;20048;-76
2023/08/29 05:52:14;;;;;;;3.13;1.50;;;;;;;;;;5102350;28;20118;-77
2023/08/29 05:54:41;;;;;;;6.70;2.33;;;;;;;;;;5112051;28;20063;-76
2023/08/29 05:57:07;;;;;;;4.65;2.50;;;;;;;;;;5111521;28;20097;-77
2023/08/29 05:59:34;;;;;;;5.07;3.22;;;;;;;;;;5100026;28;20180;-77
2023/08/29 06:02:00;;;;;;;5.63;2.92;;;;;;;;;;5111655;28;20094;-77
2023/08/29 06:04:26;;;;;;;4.88;2.90;;;;;;;;;;5090638;28;20574;-77
2023/08/29 06:06:54;;;;;;;5.70;2.95;;;;;;;;;;5108791;28;20059;-77
2023/08/29 06:09:20;;;;;;;5.72;3.08;;;;;;;;;;5115502;28;20036;-76
2023/08/29 06:11:46;;;;;;;6.85;3.20;;;;;;;;;;5105100;28;20036;-77
2023/08/29 06:14:12;;;;;;;7.07;2.63;;;;;;;;;;5104592;28;20089;-77
2023/08/29 06:16:38;;;;;;;6.25;2.15;;;;;;;;;;5108022;28;20047;-77
2023/08/29 06:19:04;;;;;;;5.15;2.08;;;;;;;;;;5108229;28;20047;-77
2023/08/29 06:21:30;;;;;;;5.15;2.70;;;;;;;;;;5114294;28;20050;-76
2023/08/29 06:23:56;;;;;;;4.93;2.13;;;;;;;;;;5093709;28;20036;-77
2023/08/29 06:26:22;;;;;;;7.80;2.33;;;;;;;;;;5105242;28;20048;-76
2023/08/29 06:28:48;;;;;;;7.70;2.50;;;;;;;;;;5105543;28;20044;-76
2023/08/29 06:31:14;;;;;;;4.30;2.25;;;;;;;;;;5101628;28;20589;-76
2023/08/29 06:33:41;;;;;;;5.15;2.30;;;;;;;;;;5115925;28;20051;-76
2023/08/29 06:36:07;;;;;;;5.07;2.42;;;;;;;;;;5114555;28;20052;-77
2023/08/29 06:38:34;;;;;;;5.85;2.30;;;;;;;;;;5115484;28;20405;-77
2023/08/29 06:41:00;;;;;;;4.35;2.30;;;;;;;;;;5114671;28;20056;-77
2023/08/29 06:43:26;;;;;;;3.85;2.15;;;;;;;;;;5115557;28;20047;-77
2023/08/29 06:45:53;;;;;;;5.40;2.40;;;;;;;;;;5115533;28;20058;-77
2023/08/29 06:48:19;;;;;;;4.20;2.33;;;;;;;;;;5079691;28;20092;-76
2023/08/29 06:50:46;;;;;;;4.55;2.20;;;;;;;;;;5114445;28;20058;-76
2023/08/29 06:53:13;;;;;;;3.83;2.03;;;;;;;;;;5107992;28;20489;-76
2023/08/29 06:55:38;;;;;;;5.47;2.35;;;;;;;;;;5112726;28;20039;-76
2023/08/29 06:58:05;;;;;;;4.60;2.40;;;;;;;;;;5104025;28;20044;-76
2023/08/29 07:00:34;;;;;;;4.55;2.75;;;;;;;;;;5115111;28;20387;-76
2023/08/29 07:03:01;;;;;;;6.75;2.85;;;;;;;;;;5114513;28;20814;-77
2023/08/29 07:05:27;;;;;;;6.65;3.20;;;;;;;;;;5112906;28;20409;-77
2023/08/29 07:07:53;;;;;;;7.15;2.90;;;;;;;;;;5121937;27;20536;-77
2023/08/29 07:10:20;;;;;;;6.95;2.50;;;;;;;;;;5113700;27;20047;-76
2023/08/29 07:12:46;;;;;;;6.50;2.80;;;;;;;;;;5126392;27;20045;-77
2023/08/29 07:15:12;;;;;;;4.85;2.63;;;;;;;;;;5116483;27;20047;-76
2023/08/29 07:17:38;;;;;;;7.28;3.50;;;;;;;;;;5120902;27;20047;-76
2023/08/29 07:20:11;;;;;;;8.93;3.30;;;;;;;;;;5122729;27;20079;-77
2023/08/29 07:22:38;;;;;;;6.90;3.45;;;;;;;;;;5116746;27;20035;-76
2023/08/29 07:25:05;;;;;;;5.40;3.08;;;;;;;;;;5130582;27;20058;-76
2023/08/29 07:27:31;;;;;;;7.38;3.45;;;;;;;;;;5109544;27;20500;-76
2023/08/29 07:29:57;;;;;;;8.40;3.17;;;;;;;;;;5121631;27;20450;-76
2023/08/29 07:32:23;;;;;;;8.00;3.50;;;;;;;;;;5112743;27;20051;-76
2023/08/29 07:34:51;;;;;;;8.02;3.13;;;;;;;;;;5094107;28;20056;-77
2023/08/29 07:37:17;;;;;;;9.27;3.30;;;;;;;;;;5104944;28;20032;-77
2023/08/29 07:39:43;;;;;;;6.80;3.35;;;;;;;;;;5108147;27;20204;-77
2023/08/29 07:42:09;;;;;;;5.10;2.70;;;;;;;;;;5111346;28;20437;-77
2023/08/29 07:44:35;;;;;;;5.90;2.88;;;;;;;;;;5108297;28;20482;-77
2023/08/29 07:47:01;;;;;;;6.63;3.00;;;;;;;;;;5103318;28;20118;-77
2023/08/29 07:49:27;;;;;;;7.13;2.67;;;;;;;;;;5114035;28;20083;-77
2023/08/29 07:51:55;;;;;;;4.93;2.40;;;;;;;;;;5114350;28;20043;-77
2023/08/29 07:54:21;;;;;;;5.15;2.00;;;;;;;;;;5114509;28;20043;-77
2023/08/29 07:56:47;;;;;;;6.25;1.95;;;;;;;;;;5113321;28;20043;-77
2023/08/29 07:59:14;;;;;;;7.75;2.08;;;;;;;;;;5112243;28;20047;-77
2023/08/29 08:01:40;;;;;;;3.10;1.20;;;;;;;;;;5113954;28;20070;-77
2023/08/29 08:04:06;;;;;;;6.03;1.77;;;;;;;;;;5112970;28;20086;-77
2023/08/29 08:06:32;;;;;;;4.47;1.40;;;;;;;;;;5113715;28;20055;-77
2023/08/29 08:08:59;;;;;;;5.47;1.30;;;;;;;;;;5113887;28;20044;-76
2023/08/29 08:11:25;;;;;;;5.93;1.20;;;;;;;;;;5114079;28;20048;-77
2023/08/29 08:13:51;;;;;;;4.60;1.40;;;;;;;;;;5111330;28;20043;-77
2023/08/29 08:16:17;;;;;;;4.00;1.08;;;;;;;;;;5113381;28;20055;-76
2023/08/29 08:18:43;;;;;;;3.60;0.90;;;;;;;;;;5113889;28;20044;-76
2023/08/29 08:21:09;;;;;;;2.50;0.90;;;;;;;;;;5113744;28;20043;-76
2023/08/29 08:23:35;;;;;;;3.95;0.90;;;;;;;;;;5107104;28;20036;-78
2023/08/29 08:26:01;;;;;;;3.53;0.90;;;;;;;;;;5093583;28;20066;-77
2023/08/29 08:28:27;;;;;;;4.40;0.80;;;;;;;;;;5093082;28;20490;-77
2023/08/29 08:30:53;;;;;;;3.22;0.70;;;;;;;;;;5075487;28;20047;-77
2023/08/29 08:33:19;;;;;;;2.90;0.63;;;;;;;;;;5093149;28;20070;-76
2023/08/29 08:35:45;;;;;;;6.32;0.93;;;;;;;;;;5093334;28;20048;-76
2023/08/29 08:38:11;;;;;;;3.90;0.90;;;;;;;;;;5108233;28;20048;-76
2023/08/29 08:40:38;;;;;;;3.40;0.60;;;;;;;;;;5108900;28;20410;-76
2023/08/29 08:43:07;;;;;;;3.78;0.70;;;;;;;;;;5092518;28;20549;-77
2023/08/29 08:45:33;;;;;;;2.65;0.65;;;;;;;;;;5092939;28;20452;-77
2023/08/29 08:48:00;;;;;;;3.72;0.73;;;;;;;;;;5092761;28;20486;-77
2023/08/29 08:50:27;;;;;;;2.58;0.70;;;;;;;;;;5093190;28;20054;-77
2023/08/29 08:52:54;;;;;;;3.90;0.65;;;;;;;;;;5101524;28;20050;-77
2023/08/29 08:55:20;;;;;;;4.63;0.60;;;;;;;;;;5093037;28;20052;-77
2023/08/29 08:57:47;;;;;;;3.33;0.55;;;;;;;;;;5097801;28;20039;-77
2023/08/29 09:00:14;;;;;;;2.22;0.70;;;;;;;;;;5103104;28;20067;-77
2023/08/29 09:02:41;;;;;;;3.30;0.77;;;;;;;;;;5075047;28;20126;-77
2023/08/29 09:05:07;;;;;;;2.78;0.65;;;;;;;;;;5092854;28;20073;-77
2023/08/29 09:07:37;;;;;;;1.88;0.63;;;;;;;;;;5095925;28;20056;-77
2023/08/29 09:10:07;;;;;;;3.67;0.60;;;;;;;;;;5094704;28;20043;-77
2023/08/29 09:12:34;;;;;;;3.13;0.70;;;;;;;;;;5109292;28;20096;-77
2023/08/29 09:15:07;;;;;;;3.22;0.73;;;;;;;;;;5112501;28;20052;-77
2023/08/29 09:17:33;;;;;;;4.18;0.80;;;;;;;;;;5113309;28;20096;-77
2023/08/29 09:19:59;;;;;;;4.25;0.70;;;;;;;;;;5111934;28;20044;-78
2023/08/29 09:22:26;;;;;;;3.55;0.65;;;;;;;;;;5113025;28;20396;-77
2023/08/29 09:24:53;;;;;;;2.95;0.70;;;;;;;;;;5112676;28;20100;-77
2023/08/29 09:27:19;;;;;;;2.53;0.70;;;;;;;;;;5112961;28;20044;-77
2023/08/29 09:29:45;;;;;;;3.65;0.73;;;;;;;;;;5100122;28;20040;-77
2023/08/29 09:32:14;;;;;;;2.30;0.60;;;;;;;;;;5088970;28;20042;-77
2023/08/29 09:34:41;;;;;;;3.25;0.88;;;;;;;;;;5096729;28;20064;-77
2023/08/29 09:37:07;;;;;;;3.22;0.70;;;;;;;;;;5096656;28;20516;-77
2023/08/29 09:39:33;;;;;;;3.55;0.70;;;;;;;;;;5096498;28;20545;-77
2023/08/29 09:42:02;;;;;;;2.80;0.68;;;;;;;;;;5096606;28;20085;-77
2023/08/29 09:44:29;;;;;;;3.05;0.80;;;;;;;;;;5090352;28;20048;-77
2023/08/29 09:46:56;;;;;;;4.28;0.80;;;;;;;;;;5078406;28;20048;-77
2023/08/29 09:49:22;;;;;;;1.58;0.60;;;;;;;;;;5096263;28;20494;-77
2023/08/29 09:51:49;;;;;;;1.80;0.50;;;;;;;;;;5078121;28;20097;-78
2023/08/29 09:54:19;;;;;;;1.58;0.50;;;;;;;;;;5096483;28;20447;-77
2023/08/29 09:56:46;;;;;;;3.80;0.70;;;;;;;;;;5096435;28;20048;-77
2023/08/29 09:59:13;;;;;;;3.53;0.80;;;;;;;;;;5111757;28;20043;-77
2023/08/29 10:01:42;;;;;;;2.53;0.60;;;;;;;;;;5115944;28;20047;-78
2023/08/29 10:04:11;;;;;;;2.67;0.60;;;;;;;;;;5116173;28;20047;-78
2023/08/29 10:06:41;;;;;;;2.17;0.60;;;;;;;;;;5098002;28;20060;-78
2023/08/29 10:09:08;;;;;;;4.53;0.70;;;;;;;;;;5116687;28;20123;-77
2023/08/29 10:11:34;;;;;;;1.80;0.52;;;;;;;;;;5116426;28;20085;-78
2023/08/29 10:14:01;;;;;;;2.25;0.60;;;;;;;;;;5115940;28;21306;-78
2023/08/29 10:16:27;;;;;;;3.13;0.70;;;;;;;;;;5116245;28;20105;-78
2023/08/29 10:18:55;;;;;;;2.83;0.60;;;;;;;;;;5115915;28;20055;-78
2023/08/29 10:21:21;;;;;;;1.70;0.50;;;;;;;;;;5116451;28;20120;-77
2023/08/29 10:23:49;;;;;;;3.65;0.80;;;;;;;;;;5116327;28;20835;-77
2023/08/29 10:26:17;;;;;;;3.05;0.82;;;;;;;;;;5109539;28;20101;-77
2023/08/29 10:28:44;;;;;;;4.00;0.50;;;;;;;;;;5102306;28;20042;-77
2023/08/29 10:31:11;;;;;;;2.75;0.70;;;;;;;;;;5103481;28;20036;-77
2023/08/29 10:33:37;;;;;;;2.28;1.25;;;;;;;;;;5113936;28;20070;-77
2023/08/29 10:36:06;;;;;;;2.00;0.60;;;;;;;;;;5098082;28;20040;-76
2023/08/29 10:38:32;;;;;;;3.00;0.75;;;;;;;;;;5115728;28;20059;-76
2023/08/29 10:41:06;;;;;;;2.42;0.63;;;;;;;;;;5115764;28;20066;-77
2023/08/29 10:43:34;;;;;;;2.55;0.65;;;;;;;;;;5102853;28;20044;-77
2023/08/29 10:46:13;;;;;;;3.40;0.68;;;;;;;;;;5112247;28;20054;-77
2023/08/29 10:48:40;;;;;;;2.00;0.70;;;;;;;;;;5112790;28;20425;-76
2023/08/29 10:51:19;;;;;;;2.70;0.70;;;;;;;;;;5113593;28;20047;-70
2023/08/29 10:53:48;;;;;;;4.68;0.80;;;;;;;;;;5111231;28;20401;-71
2023/08/29 10:56:15;;;;;;;2.50;0.63;;;;;;;;;;5113164;28;20131;-71
2023/08/29 10:58:45;;;;;;;2.47;0.60;;;;;;;;;;5111963;28;20073;-70
2023/08/29 11:01:27;;;;;;;2.25;0.60;;;;;;;;;;5106279;28;20048;-70
2023/08/29 11:03:53;;;;;;;6.35;0.77;;;;;;;;;;5104666;28;20063;-71
2023/08/29 11:06:20;;;;;;;2.63;0.57;;;;;;;;;;5114689;28;20044;-70
2023/08/29 11:08:46;;;;;;;2.63;0.57;;;;;;;;;;5106477;28;20054;-71
2023/08/29 11:11:18;;;;;;;1.88;0.60;;;;;;;;;;5112287;28;20059;-73
2023/08/29 11:13:55;;;;;;;1.38;0.60;;;;;;;;;;5086733;28;20044;-70
2023/08/29 11:16:21;;;;;;;2.95;0.73;;;;;;;;;;5092331;28;20106;-70
2023/08/29 11:18:47;;;;;;;2.38;0.60;;;;;;;;;;5112009;28;20043;-71
2023/08/29 11:21:15;;;;;;;3.75;0.70;;;;;;;;;;5110596;28;20500;-71
2023/08/29 11:23:43;;;;;;;2.25;0.60;;;;;;;;;;5111431;28;20043;-71
2023/08/29 11:26:10;;;;;;;2.53;0.68;;;;;;;;;;5113415;28;20043;-72
2023/08/29 11:28:44;;;;;;;2.17;0.68;;;;;;;;;;5109156;28;20048;-71
2023/08/29 11:31:11;;;;;;;3.28;0.80;;;;;;;;;;5091927;28;20058;-71
2023/08/29 11:33:37;;;;;;;2.13;0.60;;;;;;;;;;5110952;28;20036;-72
2023/08/29 11:36:05;;;;;;;2.78;0.80;;;;;;;;;;5106407;28;20482;-71
2023/08/29 11:38:31;;;;;;;3.15;0.68;;;;;;;;;;5105725;28;20408;-71
2023/08/29 11:40:58;;;;;;;3.25;0.70;;;;;;;;;;5107423;28;20158;-71
2023/08/29 11:43:25;;;;;;;2.22;0.65;;;;;;;;;;5111532;28;20047;-71
2023/08/29 11:45:57;;;;;;;3.40;0.65;;;;;;;;;;5110924;28;20537;-72
2023/08/29 11:48:24;;;;;;;3.75;0.60;;;;;;;;;;5111803;28;20039;-72
2023/08/29 11:50:54;;;;;;;2.78;0.70;;;;;;;;;;5110796;28;20075;-71
2023/08/29 11:53:27;;;;;;;3.20;0.60;;;;;;;;;;5111952;28;20039;-71
2023/08/29 11:55:53;;;;;;;3.05;0.70;;;;;;;;;;5110629;28;20069;-72
2023/08/29 11:58:19;;;;;;;5.10;0.70;;;;;;;;;;5110980;28;20524;-71
2023/08/29 12:00:49;;;;;;;1.48;0.50;;;;;;;;;;5111105;28;20069;-72
2023/08/29 12:03:19;;;;;;;2.40;0.70;;;;;;;;;;5108915;28;20550;-70
2023/08/29 12:05:46;;;;;;;3.22;0.63;;;;;;;;;;5109491;28;20067;-71
2023/08/29 12:08:12;;;;;;;3.63;0.60;;;;;;;;;;5107408;28;20071;-71
2023/08/29 12:10:38;;;;;;;3.70;0.60;;;;;;;;;;5112926;28;20188;-72
2023/08/29 12:13:11;;;;;;;3.25;0.82;;;;;;;;;;5107480;28;20043;-71
2023/08/29 12:15:38;;;;;;;4.18;0.70;;;;;;;;;;5113071;28;20509;-70
2023/08/29 12:18:04;;;;;;;3.55;0.80;;;;;;;;;;5112476;28;20093;-72
2023/08/29 12:20:33;;;;;;;2.35;0.80;;;;;;;;;;5108026;28;20039;-71
2023/08/29 12:22:59;;;;;;;3.45;0.73;;;;;;;;;;5111667;28;20055;-70
2023/08/29 12:25:26;;;;;;;1.83;0.60;;;;;;;;;;5111777;28;20053;-70
2023/08/29 12:27:52;;;;;;;4.80;1.00;;;;;;;;;;5104463;28;20048;-70
2023/08/29 12:30:19;;;;;;;2.40;0.70;;;;;;;;;;5104349;28;20039;-70
2023/08/29 12:32:46;;;;;;;2.33;0.70;;;;;;;;;;5103840;28;20394;-70
2023/08/29 12:35:14;;;;;;;1.88;0.60;;;;;;;;;;5108283;28;20036;-70
2023/08/29 12:37:40;;;;;;;4.25;0.70;;;;;;;;;;5112339;28;20040;-71
2023/08/29 12:40:08;;;;;;;3.05;0.80;;;;;;;;;;5100498;28;20052;-71
2023/08/29 12:42:35;;;;;;;3.42;0.88;;;;;;;;;;5109694;28;20054;-70
2023/08/29 12:45:03;;;;;;;3.65;0.88;;;;;;;;;;5110790;28;20055;-70
2023/08/29 12:47:29;;;;;;;3.60;0.80;;;;;;;;;;5103868;28;20040;-70
2023/08/29 12:49:55;;;;;;;4.45;0.80;;;;;;;;;;5106681;28;20051;-70
2023/08/29 12:52:21;;;;;;;6.38;0.90;;;;;;;;;;5109178;28;20043;-69
2023/08/29 12:54:47;;;;;;;2.85;0.80;;;;;;;;;;5111905;28;20052;-69
2023/08/29 12:57:14;;;;;;;3.85;0.70;;;;;;;;;;5112558;28;20058;-70
2023/08/29 12:59:40;;;;;;;2.50;0.60;;;;;;;;;;5110922;28;20074;-70
2023/08/29 13:02:06;;;;;;;2.08;0.70;;;;;;;;;;5112333;28;20036;-72
2023/08/29 13:04:32;;;;;;;2.67;0.70;;;;;;;;;;5110454;28;20035;-69
2023/08/29 13:06:59;;;;;;;2.05;0.70;;;;;;;;;;5112379;28;20059;-69
2023/08/29 13:09:25;;;;;;;3.88;0.60;;;;;;;;;;5097616;28;20501;-69
2023/08/29 13:11:51;;;;;;;3.08;0.60;;;;;;;;;;5110014;28;20043;-69
2023/08/29 13:14:18;;;;;;;1.98;0.60;;;;;;;;;;5112526;28;20052;-70
2023/08/29 13:16:44;;;;;;;2.30;0.70;;;;;;;;;;5109335;28;20043;-69
2023/08/29 13:19:10;;;;;;;1.83;0.65;;;;;;;;;;5110902;28;20097;-69
2023/08/29 13:21:36;;;;;;;3.15;0.82;;;;;;;;;;5112620;28;20052;-69
2023/08/29 13:24:03;;;;;;;1.85;0.50;;;;;;;;;;5112820;28;20055;-70
2023/08/29 13:26:29;;;;;;;2.40;0.65;;;;;;;;;;5112365;28;20044;-70
2023/08/29 13:28:55;;;;;;;3.80;0.70;;;;;;;;;;5110067;28;20043;-70
2023/08/29 13:31:24;;;;;;;1.77;0.60;;;;;;;;;;5107604;28;20051;-70
2023/08/29 13:33:51;;;;;;;3.45;0.63;;;;;;;;;;5110550;28;20043;-70
2023/08/29 13:36:17;;;;;;;3.58;0.60;;;;;;;;;;5108778;28;20524;-70
2023/08/29 13:38:43;;;;;;;4.57;0.80;;;;;;;;;;5111231;28;20093;-70
2023/08/29 13:41:09;;;;;;;4.13;1.00;;;;;;;;;;5104096;28;20054;-69
2023/08/29 13:43:35;;;;;;;5.00;1.23;;;;;;;;;;5109368;28;20039;-69
2023/08/29 13:46:01;;;;;;;4.25;1.40;;;;;;;;;;5111536;28;20055;-69
2023/08/29 13:48:27;;;;;;;3.65;1.50;;;;;;;;;;5093259;28;20047;-69
2023/08/29 13:50:53;;;;;;;2.25;1.10;;;;;;;;;;5105438;28;20050;-69
2023/08/29 13:53:20;;;;;;;4.07;1.50;;;;;;;;;;5106577;28;20059;-69
2023/08/29 13:55:47;;;;;;;3.50;1.40;;;;;;;;;;5109499;28;20497;-68
2023/08/29 13:58:13;;;;;;;3.83;1.30;;;;;;;;;;5110738;28;20116;-70
2023/08/29 14:00:39;;;;;;;3.90;1.40;;;;;;;;;;5108929;28;20040;-69
2023/08/29 14:03:06;;;;;;;3.35;1.20;;;;;;;;;;5111006;28;20051;-70
2023/08/29 14:05:32;;;;;;;3.63;1.10;;;;;;;;;;5106288;28;20044;-69
2023/08/29 14:07:59;;;;;;;3.15;1.30;;;;;;;;;;5110196;28;20162;-68
2023/08/29 14:10:25;;;;;;;3.85;1.10;;;;;;;;;;5107065;28;20043;-69
2023/08/29 14:12:52;;;;;;;3.40;1.13;;;;;;;;;;5108097;28;20032;-69
2023/08/29 14:15:18;;;;;;;4.00;1.10;;;;;;;;;;5112005;28;20046;-70
2023/08/29 14:17:44;;;;;;;4.57;1.25;;;;;;;;;;5095599;28;20044;-69
2023/08/29 14:20:10;;;;;;;2.35;0.80;;;;;;;;;;5096518;28;20089;-69
2023/08/29 14:22:37;;;;;;;2.75;0.80;;;;;;;;;;5113208;27;20044;-69
2023/08/29 14:25:03;;;;;;;3.22;1.08;;;;;;;;;;5113508;28;20343;-69
2023/08/29 14:27:29;;;;;;;3.63;0.90;;;;;;;;;;5114950;28;20073;-69
2023/08/29 14:29:55;;;;;;;2.97;0.60;;;;;;;;;;5095931;28;20401;-68
2023/08/29 14:32:21;;;;;;;2.42;0.70;;;;;;;;;;5111990;28;20056;-69
2023/08/29 14:34:47;;;;;;;2.20;0.70;;;;;;;;;;5114299;28;20043;-69
2023/08/29 14:37:14;;;;;;;2.90;0.80;;;;;;;;;;5112516;28;20065;-69
2023/08/29 14:39:40;;;;;;;3.30;0.90;;;;;;;;;;5109548;28;20122;-69
2023/08/29 14:42:06;;;;;;;2.10;0.70;;;;;;;;;;5113710;28;20040;-69